Main page
METAR-TAF:

METAR-TAF

Airports :

Recife, Pernambuco, Brazil

Recife/Guararapes–Gilberto Freyre International Airport

latitude: 08-08S, longitude: 034-55W, elevation: 19 m

Current weather observation

The report was made 59 minutes ago, at 04:00 UTC
Wind 10 kt from the Southeast
Temperature 24°C
Humidity 83%
Pressure 1014 hPa
Visibility 10 km or more
Few clouds at a height of 2300 ft

METAR: SBRF 240400Z 14010KT 9999 FEW023 24/21 Q1014

Time: 01:59 (04:59 UTC)

Forecast

The report was made 6 hours and 59 minutes ago, at 22:00 UTC
Forecast valid from 24 at 00 UTC to 24 at 24 UTC
Wind 8 kt from the South/Southwest
Visibility: 8000 m
Scattered clouds at a height of 2000 ft
Temporary
from 24 at 07 UTC to 24 at 11 UTC
Visibility: 4500 m
Broken clouds at a height of 1400 ft
rain
Becoming
between 24 and 1 UTC
Wind 12 kt from the Southeast

TAF: SBRF 232200Z 2400/2424 21008KT 8000 SCT020 TN23/2408Z TX28/2415Z TEMPO 2407/2411 4500 RA BKN014 BECMG 241 2/2413 14012KT RMK PEA

Weather observations and forecasts of more than 4000 airports (METAR and TAF reports).

The available stations are represented by yellow and red dots on the map.

Hover mouse over dot to see the name of the station.

Then click to see weather observations and forecasts.

To change the map : click on the green buttons with a black cross to zoom in, on the green button with a dash to zoom out, or on the green arrows for adjacent maps.


METAR-TAF: